Pond Creek, Oklahoma
Current Conditions -  °F | °C
As of 7:50 PM on Friday 24 Oct 2014 (Local Time) from KWDG Reporting Station
Few Clouds Few Clouds  
Wind Chill: 70°   Ceiling: Unl
Heat Index: 70°   Visibility: 10mi
Dew Point: 63°   Wind: 6mph
Humidity: 78%   Direction: 150°SSE
Pressure: 30.01"   Gusts: NA
Location:  36.67°N, 97.8°W
Report Text: KWDG 250050Z 15005KT 10SM FEW200 21/17 A3001
Loading
Personal Weather Stations






























Interactive Weather Map
Tropical Storm Tracking
New forecast layout! Learn more

10-Day Weather Forecast

Advertisements
Track Severe Weather on mobile